sensor_id;sensor_type;location;lat;lon;timestamp;pressure;altitude;pressure_sealevel;temperature;humidity
69842;BME280;57138;51.326;-0.068;2023-04-27T00:01:10;100039.03;;;6.84;68.09
69842;BME280;57138;51.326;-0.068;2023-04-27T00:03:36;100030.53;;;6.80;67.75
69842;BME280;57138;51.326;-0.068;2023-04-27T00:06:02;100032.53;;;6.78;67.96
69842;BME280;57138;51.326;-0.068;2023-04-27T00:08:28;100029.72;;;6.80;67.90
69842;BME280;57138;51.326;-0.068;2023-04-27T00:10:53;100014.78;;;6.71;68.33
69842;BME280;57138;51.326;-0.068;2023-04-27T00:13:19;100030.22;;;6.75;68.05
69842;BME280;57138;51.326;-0.068;2023-04-27T00:15:44;100024.75;;;6.69;68.90
69842;BME280;57138;51.326;-0.068;2023-04-27T00:18:10;100019.94;;;6.64;68.93
69842;BME280;57138;51.326;-0.068;2023-04-27T00:20:35;100021.91;;;6.62;68.93
69842;BME280;57138;51.326;-0.068;2023-04-27T00:23:01;100024.41;;;6.63;69.10
69842;BME280;57138;51.326;-0.068;2023-04-27T00:25:26;100022.75;;;6.62;69.21
69842;BME280;57138;51.326;-0.068;2023-04-27T00:27:51;100028.41;;;6.59;69.54
69842;BME280;57138;51.326;-0.068;2023-04-27T00:30:17;100027.72;;;6.57;70.04
69842;BME280;57138;51.326;-0.068;2023-04-27T00:32:42;100031.56;;;6.55;70.33
69842;BME280;57138;51.326;-0.068;2023-04-27T00:35:08;100022.91;;;6.53;70.40
69842;BME280;57138;51.326;-0.068;2023-04-27T00:37:34;100021.63;;;6.48;70.97
69842;BME280;57138;51.326;-0.068;2023-04-27T00:40:00;100014.97;;;6.44;70.91
69842;BME280;57138;51.326;-0.068;2023-04-27T00:42:25;100026.41;;;6.45;71.57
69842;BME280;57138;51.326;-0.068;2023-04-27T00:44:51;100015.13;;;6.43;71.68
69842;BME280;57138;51.326;-0.068;2023-04-27T00:47:16;100009.66;;;6.36;72.51
69842;BME280;57138;51.326;-0.068;2023-04-27T00:49:42;100009.97;;;6.41;72.46
69842;BME280;57138;51.326;-0.068;2023-04-27T00:52:07;100005.66;;;6.40;72.94
69842;BME280;57138;51.326;-0.068;2023-04-27T00:54:33;99994.38;;;6.38;72.94
69842;BME280;57138;51.326;-0.068;2023-04-27T00:56:59;99999.53;;;6.40;72.85
69842;BME280;57138;51.326;-0.068;2023-04-27T00:59:27;99984.91;;;6.36;73.59
69842;BME280;57138;51.326;-0.068;2023-04-27T01:01:53;99989.41;;;6.35;73.99
69842;BME280;57138;51.326;-0.068;2023-04-27T01:04:19;99982.41;;;6.34;73.59
69842;BME280;57138;51.326;-0.068;2023-04-27T01:06:44;99975.97;;;6.37;73.69
69842;BME280;57138;51.326;-0.068;2023-04-27T01:09:10;99969.31;;;6.33;73.35
69842;BME280;57138;51.326;-0.068;2023-04-27T01:11:35;99962.03;;;6.35;73.56
69842;BME280;57138;51.326;-0.068;2023-04-27T01:14:05;99957.88;;;6.32;73.79
69842;BME280;57138;51.326;-0.068;2023-04-27T01:16:34;99959.53;;;6.33;73.72
69842;BME280;57138;51.326;-0.068;2023-04-27T01:18:59;99953.59;;;6.31;73.57
69842;BME280;57138;51.326;-0.068;2023-04-27T01:21:25;99944.59;;;6.32;73.68
69842;BME280;57138;51.326;-0.068;2023-04-27T01:23:51;99947.25;;;6.32;73.72
69842;BME280;57138;51.326;-0.068;2023-04-27T01:26:17;99936.97;;;6.29;72.94
69842;BME280;57138;51.326;-0.068;2023-04-27T01:28:42;99938.97;;;6.27;73.13
69842;BME280;57138;51.326;-0.068;2023-04-27T01:31:11;99928.69;;;6.24;73.21
69842;BME280;57138;51.326;-0.068;2023-04-27T01:33:37;99934.47;;;6.27;73.56
69842;BME280;57138;51.326;-0.068;2023-04-27T01:36:04;99934.47;;;6.27;72.57
69842;BME280;57138;51.326;-0.068;2023-04-27T01:38:31;99937.81;;;6.29;72.43
69842;BME280;57138;51.326;-0.068;2023-04-27T01:40:56;99936.31;;;6.27;73.19
69842;BME280;57138;51.326;-0.068;2023-04-27T01:43:26;99930.69;;;6.22;72.50
69842;BME280;57138;51.326;-0.068;2023-04-27T01:45:52;99931.50;;;6.22;73.15
69842;BME280;57138;51.326;-0.068;2023-04-27T01:48:17;99928.19;;;6.20;73.18
69842;BME280;57138;51.326;-0.068;2023-04-27T01:50:43;99915.44;;;6.16;73.18
69842;BME280;57138;51.326;-0.068;2023-04-27T01:53:08;99926.19;;;6.22;73.07
69842;BME280;57138;51.326;-0.068;2023-04-27T01:55:33;99921.38;;;6.18;73.62
69842;BME280;57138;51.326;-0.068;2023-04-27T01:57:59;99930.16;;;6.18;73.24
69842;BME280;57138;51.326;-0.068;2023-04-27T02:00:24;99932.16;;;6.16;73.25
69842;BME280;57138;51.326;-0.068;2023-04-27T02:02:50;99933.00;;;6.17;73.42
69842;BME280;57138;51.326;-0.068;2023-04-27T02:05:18;99925.53;;;6.12;73.50
69842;BME280;57138;51.326;-0.068;2023-04-27T02:07:43;99932.34;;;6.15;72.85
69842;BME280;57138;51.326;-0.068;2023-04-27T02:10:09;99931.69;;;6.13;73.10
69842;BME280;57138;51.326;-0.068;2023-04-27T02:12:35;99955.56;;;6.13;73.39
69842;BME280;57138;51.326;-0.068;2023-04-27T02:15:00;99951.41;;;6.10;73.51
69842;BME280;57138;51.326;-0.068;2023-04-27T02:17:27;99955.91;;;6.09;73.63
69842;BME280;57138;51.326;-0.068;2023-04-27T02:19:53;99963.34;;;6.06;74.71
69842;BME280;57138;51.326;-0.068;2023-04-27T02:22:18;99963.50;;;6.04;74.42
69842;BME280;57138;51.326;-0.068;2023-04-27T02:24:43;99968.81;;;6.04;74.74
69842;BME280;57138;51.326;-0.068;2023-04-27T02:27:09;99967.34;;;6.02;74.49
69842;BME280;57138;51.326;-0.068;2023-04-27T02:29:34;99978.78;;;6.02;73.92
69842;BME280;57138;51.326;-0.068;2023-04-27T02:32:05;99975.47;;;6.00;74.42
69842;BME280;57138;51.326;-0.068;2023-04-27T02:34:30;99979.13;;;5.99;74.46
69842;BME280;57138;51.326;-0.068;2023-04-27T02:36:56;99956.50;;;5.95;74.66
69842;BME280;57138;51.326;-0.068;2023-04-27T02:39:21;99974.09;;;5.96;74.27
69842;BME280;57138;51.326;-0.068;2023-04-27T02:41:46;99977.59;;;5.97;74.68
69842;BME280;57138;51.326;-0.068;2023-04-27T02:44:12;99960.50;;;5.91;74.87
69842;BME280;57138;51.326;-0.068;2023-04-27T02:46:37;99960.50;;;5.91;75.20
69842;BME280;57138;51.326;-0.068;2023-04-27T02:49:02;99958.84;;;5.90;75.63
69842;BME280;57138;51.326;-0.068;2023-04-27T02:51:28;99959.00;;;5.88;74.97
69842;BME280;57138;51.326;-0.068;2023-04-27T02:53:53;99949.03;;;5.82;75.54
69842;BME280;57138;51.326;-0.068;2023-04-27T02:56:19;99940.59;;;5.79;75.79
69842;BME280;57138;51.326;-0.068;2023-04-27T02:58:44;99954.84;;;5.86;75.57
69842;BME280;57138;51.326;-0.068;2023-04-27T03:01:14;99955.00;;;5.84;75.89
69842;BME280;57138;51.326;-0.068;2023-04-27T03:03:44;99946.56;;;5.81;76.56
69842;BME280;57138;51.326;-0.068;2023-04-27T03:06:09;99948.38;;;5.80;76.03
69842;BME280;57138;51.326;-0.068;2023-04-27T03:08:34;99950.19;;;5.80;76.41
69842;BME280;57138;51.326;-0.068;2023-04-27T03:11:00;99937.59;;;5.73;76.14
69842;BME280;57138;51.326;-0.068;2023-04-27T03:13:25;99942.22;;;5.71;76.29
69842;BME280;57138;51.326;-0.068;2023-04-27T03:15:50;99949.84;;;5.74;76.19
69842;BME280;57138;51.326;-0.068;2023-04-27T03:18:16;99944.88;;;5.71;76.33
69842;BME280;57138;51.326;-0.068;2023-04-27T03:20:41;99945.56;;;5.73;76.51
69842;BME280;57138;51.326;-0.068;2023-04-27T03:23:07;99941.56;;;5.69;76.46
69842;BME280;57138;51.326;-0.068;2023-04-27T03:25:32;99939.25;;;5.66;76.52
69842;BME280;57138;51.326;-0.068;2023-04-27T03:27:58;99948.53;;;5.70;76.82
69842;BME280;57138;51.326;-0.068;2023-04-27T03:30:23;99948.88;;;5.67;77.61
69842;BME280;57138;51.326;-0.068;2023-04-27T03:32:48;99927.13;;;5.64;77.60
69842;BME280;57138;51.326;-0.068;2023-04-27T03:35:14;99925.28;;;5.56;77.30
69842;BME280;57138;51.326;-0.068;2023-04-27T03:37:40;99922.16;;;5.61;77.47
69842;BME280;57138;51.326;-0.068;2023-04-27T03:40:05;99929.13;;;5.62;78.30
69842;BME280;57138;51.326;-0.068;2023-04-27T03:42:31;99911.06;;;5.57;77.84
69842;BME280;57138;51.326;-0.068;2023-04-27T03:44:57;99927.28;;;5.62;77.99
69842;BME280;57138;51.326;-0.068;2023-04-27T03:47:22;99927.47;;;5.61;78.21
69842;BME280;57138;51.326;-0.068;2023-04-27T03:49:47;99927.47;;;5.61;77.83
69842;BME280;57138;51.326;-0.068;2023-04-27T03:52:13;99917.84;;;5.60;78.74
69842;BME280;57138;51.326;-0.068;2023-04-27T03:54:38;99918.69;;;5.60;78.72
69842;BME280;57138;51.326;-0.068;2023-04-27T03:57:04;99927.97;;;5.64;78.78
69842;BME280;57138;51.326;-0.068;2023-04-27T03:59:29;99921.34;;;5.60;78.44
69842;BME280;57138;51.326;-0.068;2023-04-27T04:01:55;99924.31;;;5.65;78.14
69842;BME280;57138;51.326;-0.068;2023-04-27T04:04:21;99913.03;;;5.63;78.66
69842;BME280;57138;51.326;-0.068;2023-04-27T04:06:47;99917.38;;;5.64;78.21
69842;BME280;57138;51.326;-0.068;2023-04-27T04:09:12;99915.03;;;5.69;78.78
69842;BME280;57138;51.326;-0.068;2023-04-27T04:11:37;99911.56;;;5.69;79.22
69842;BME280;57138;51.326;-0.068;2023-04-27T04:14:03;99919.53;;;5.69;79.04
69842;BME280;57138;51.326;-0.068;2023-04-27T04:16:28;99901.47;;;5.64;79.39
69842;BME280;57138;51.326;-0.068;2023-04-27T04:18:53;99888.03;;;5.66;78.79
69842;BME280;57138;51.326;-0.068;2023-04-27T04:21:19;99900.31;;;5.75;78.81
69842;BME280;57138;51.326;-0.068;2023-04-27T04:23:44;99893.34;;;5.74;78.60
69842;BME280;57138;51.326;-0.068;2023-04-27T04:26:10;99910.75;;;5.76;79.38
69842;BME280;57138;51.326;-0.068;2023-04-27T04:28:35;99893.16;;;5.75;79.16
69842;BME280;57138;51.326;-0.068;2023-04-27T04:31:01;99903.44;;;5.79;79.56
69842;BME280;57138;51.326;-0.068;2023-04-27T04:33:27;99894.84;;;5.76;79.08
69842;BME280;57138;51.326;-0.068;2023-04-27T04:35:52;99893.50;;;5.81;78.97
69842;BME280;57138;51.326;-0.068;2023-04-27T04:38:18;99886.34;;;5.81;79.48
69842;BME280;57138;51.326;-0.068;2023-04-27T04:40:43;99887.69;;;5.85;78.92
69842;BME280;57138;51.326;-0.068;2023-04-27T04:43:09;99877.91;;;5.86;79.27
69842;BME280;57138;51.326;-0.068;2023-04-27T04:45:35;99882.53;;;5.92;79.15
69842;BME280;57138;51.326;-0.068;2023-04-27T04:48:00;99868.94;;;5.87;78.86
69842;BME280;57138;51.326;-0.068;2023-04-27T04:50:26;99886.53;;;5.96;79.05
69842;BME280;57138;51.326;-0.068;2023-04-27T04:52:51;99885.72;;;5.96;78.88
69842;BME280;57138;51.326;-0.068;2023-04-27T04:55:17;99890.53;;;6.00;78.88
69842;BME280;57138;51.326;-0.068;2023-04-27T04:57:42;99892.88;;;6.03;78.72
69842;BME280;57138;51.326;-0.068;2023-04-27T05:00:08;99887.56;;;6.03;79.01
69842;BME280;57138;51.326;-0.068;2023-04-27T05:02:36;99895.84;;;6.08;78.70
69842;BME280;57138;51.326;-0.068;2023-04-27T05:05:02;99894.00;;;6.09;78.69
69842;BME280;57138;51.326;-0.068;2023-04-27T05:07:28;99892.53;;;6.15;78.53
69842;BME280;57138;51.326;-0.068;2023-04-27T05:09:53;99882.88;;;6.14;78.53
69842;BME280;57138;51.326;-0.068;2023-04-27T05:12:18;99877.25;;;6.17;78.59
69842;BME280;57138;51.326;-0.068;2023-04-27T05:14:44;99877.56;;;6.14;78.33
69842;BME280;57138;51.326;-0.068;2023-04-27T05:17:10;99876.25;;;6.18;78.48
69842;BME280;57138;51.326;-0.068;2023-04-27T05:19:35;99876.25;;;6.18;78.00
69842;BME280;57138;51.326;-0.068;2023-04-27T05:22:00;99874.94;;;6.14;78.33
69842;BME280;57138;51.326;-0.068;2023-04-27T05:24:26;99885.72;;;6.20;78.14
69842;BME280;57138;51.326;-0.068;2023-04-27T05:26:51;99881.22;;;6.21;77.86
69842;BME280;57138;51.326;-0.068;2023-04-27T05:29:17;99888.22;;;6.22;78.36
69842;BME280;57138;51.326;-0.068;2023-04-27T05:31:42;99883.06;;;6.20;78.10
69842;BME280;57138;51.326;-0.068;2023-04-27T05:34:08;99881.41;;;6.19;77.93
69842;BME280;57138;51.326;-0.068;2023-04-27T05:36:35;99892.34;;;6.24;77.58
69842;BME280;57138;51.326;-0.068;2023-04-27T05:39:01;99889.50;;;6.26;77.43
69842;BME280;57138;51.326;-0.068;2023-04-27T05:41:28;99886.84;;;6.26;77.93
69842;BME280;57138;51.326;-0.068;2023-04-27T05:43:53;99885.88;;;6.27;77.61
69842;BME280;57138;51.326;-0.068;2023-04-27T05:46:19;99888.34;;;6.28;77.68
69842;BME280;57138;51.326;-0.068;2023-04-27T05:48:45;99888.84;;;6.32;77.59
69842;BME280;57138;51.326;-0.068;2023-04-27T05:51:11;99886.50;;;6.37;77.50
69842;BME280;57138;51.326;-0.068;2023-04-27T05:53:37;99880.84;;;6.40;77.67
69842;BME280;57138;51.326;-0.068;2023-04-27T05:56:02;99887.16;;;6.47;77.47
69842;BME280;57138;51.326;-0.068;2023-04-27T05:58:31;99894.09;;;6.57;77.54
69842;BME280;57138;51.326;-0.068;2023-04-27T06:00:57;99888.41;;;6.68;77.60
69842;BME280;57138;51.326;-0.068;2023-04-27T06:03:23;99882.22;;;6.76;76.87
69842;BME280;57138;51.326;-0.068;2023-04-27T06:05:56;99889.66;;;6.89;76.89
69842;BME280;57138;51.326;-0.068;2023-04-27T06:08:22;99881.66;;;6.97;76.74
69842;BME280;57138;51.326;-0.068;2023-04-27T06:10:47;99881.97;;;7.02;76.34
69842;BME280;57138;51.326;-0.068;2023-04-27T06:13:13;99884.28;;;7.05;76.38
69842;BME280;57138;51.326;-0.068;2023-04-27T06:15:38;99894.56;;;7.08;75.87
69842;BME280;57138;51.326;-0.068;2023-04-27T06:18:03;99885.25;;;7.04;75.70
69842;BME280;57138;51.326;-0.068;2023-04-27T06:20:29;99897.88;;;7.10;75.04
69842;BME280;57138;51.326;-0.068;2023-04-27T06:22:56;99888.59;;;7.06;75.02
69842;BME280;57138;51.326;-0.068;2023-04-27T06:25:22;99898.53;;;7.12;75.11
69842;BME280;57138;51.326;-0.068;2023-04-27T06:27:47;99898.53;;;7.12;74.71
69842;BME280;57138;51.326;-0.068;2023-04-27T06:30:15;99903.16;;;7.18;75.32
69842;BME280;57138;51.326;-0.068;2023-04-27T06:32:41;99901.78;;;7.23;74.61
69842;BME280;57138;51.326;-0.068;2023-04-27T06:35:06;99903.94;;;7.27;74.50
69842;BME280;57138;51.326;-0.068;2023-04-27T06:37:32;99896.63;;;7.29;74.41
69842;BME280;57138;51.326;-0.068;2023-04-27T06:39:57;99900.75;;;7.32;74.51
69842;BME280;57138;51.326;-0.068;2023-04-27T06:42:22;99901.09;;;7.29;73.82
69842;BME280;57138;51.326;-0.068;2023-04-27T06:44:48;99896.75;;;7.36;73.71
69842;BME280;57138;51.326;-0.068;2023-04-27T06:47:17;99898.53;;;7.44;73.96
69842;BME280;57138;51.326;-0.068;2023-04-27T06:49:42;99898.00;;;7.48;73.58
69842;BME280;57138;51.326;-0.068;2023-04-27T06:52:08;99898.47;;;7.52;72.89
69842;BME280;57138;51.326;-0.068;2023-04-27T06:54:33;99893.97;;;7.52;72.68
69842;BME280;57138;51.326;-0.068;2023-04-27T06:56:58;99888.13;;;7.57;72.25
69842;BME280;57138;51.326;-0.068;2023-04-27T06:59:24;99891.91;;;7.63;72.75
69842;BME280;57138;51.326;-0.068;2023-04-27T07:01:49;99891.56;;;7.66;72.31
69842;BME280;57138;51.326;-0.068;2023-04-27T07:04:15;99884.22;;;7.68;72.02
69842;BME280;57138;51.326;-0.068;2023-04-27T07:06:41;99887.19;;;7.73;71.64
69842;BME280;57138;51.326;-0.068;2023-04-27T07:09:06;99903.16;;;7.73;71.19
69842;BME280;57138;51.326;-0.068;2023-04-27T07:11:32;99901.50;;;7.72;70.98
69842;BME280;57138;51.326;-0.068;2023-04-27T07:13:57;99900.13;;;7.76;71.05
69842;BME280;57138;51.326;-0.068;2023-04-27T07:16:23;99893.78;;;7.77;69.96
69842;BME280;57138;51.326;-0.068;2023-04-27T07:18:48;99893.44;;;7.80;69.13
69842;BME280;57138;51.326;-0.068;2023-04-27T07:21:13;99886.13;;;7.82;69.65
69842;BME280;57138;51.326;-0.068;2023-04-27T07:23:39;99897.69;;;7.89;69.52
69842;BME280;57138;51.326;-0.068;2023-04-27T07:26:08;99895.66;;;7.91;70.08
69842;BME280;57138;51.326;-0.068;2023-04-27T07:28:34;99890.34;;;7.91;69.09
69842;BME280;57138;51.326;-0.068;2023-04-27T07:30:59;99892.97;;;8.00;69.12
69842;BME280;57138;51.326;-0.068;2023-04-27T07:33:25;99895.53;;;8.08;68.60
69842;BME280;57138;51.326;-0.068;2023-04-27T07:35:52;99891.53;;;8.12;68.26
69842;BME280;57138;51.326;-0.068;2023-04-27T07:38:18;99889.13;;;8.17;68.10
69842;BME280;57138;51.326;-0.068;2023-04-27T07:40:44;99900.38;;;8.27;67.60
69842;BME280;57138;51.326;-0.068;2023-04-27T07:43:11;99895.75;;;8.36;68.20
69842;BME280;57138;51.326;-0.068;2023-04-27T07:45:36;99896.88;;;8.42;66.97
69842;BME280;57138;51.326;-0.068;2023-04-27T07:48:03;99894.53;;;8.47;67.34
69842;BME280;57138;51.326;-0.068;2023-04-27T07:50:29;99902.06;;;8.58;66.77
69842;BME280;57138;51.326;-0.068;2023-04-27T07:52:55;99880.00;;;8.64;66.79
69842;BME280;57138;51.326;-0.068;2023-04-27T07:55:21;99878.91;;;8.74;65.58
69842;BME280;57138;51.326;-0.068;2023-04-27T07:57:51;99881.75;;;8.87;65.46
69842;BME280;57138;51.326;-0.068;2023-04-27T08:00:17;99882.19;;;9.06;64.85
69842;BME280;57138;51.326;-0.068;2023-04-27T08:02:43;99888.56;;;9.26;64.66
69842;BME280;57138;51.326;-0.068;2023-04-27T08:05:08;99881.03;;;9.51;63.13
69842;BME280;57138;51.326;-0.068;2023-04-27T08:07:34;99873.78;;;9.67;63.07
69842;BME280;57138;51.326;-0.068;2023-04-27T08:10:00;99867.16;;;9.84;63.50
69842;BME280;57138;51.326;-0.068;2023-04-27T08:12:25;99862.53;;;9.93;61.26
69842;BME280;57138;51.326;-0.068;2023-04-27T08:14:50;99851.84;;;9.93;62.03
69842;BME280;57138;51.326;-0.068;2023-04-27T08:17:16;99846.13;;;9.96;60.72
69842;BME280;57138;51.326;-0.068;2023-04-27T08:19:42;99855.78;;;9.97;61.00
69842;BME280;57138;51.326;-0.068;2023-04-27T08:22:08;99857.03;;;10.01;61.14
69842;BME280;57138;51.326;-0.068;2023-04-27T08:24:33;99870.00;;;10.04;60.59
69842;BME280;57138;51.326;-0.068;2023-04-27T08:26:59;99868.34;;;10.03;60.58
69842;BME280;57138;51.326;-0.068;2023-04-27T08:29:25;99878.16;;;9.96;60.02
69842;BME280;57138;51.326;-0.068;2023-04-27T08:31:50;99868.69;;;9.94;59.90
69842;BME280;57138;51.326;-0.068;2023-04-27T08:34:16;99866.19;;;9.92;60.14
69842;BME280;57138;51.326;-0.068;2023-04-27T08:36:42;99863.28;;;9.87;59.93
69842;BME280;57138;51.326;-0.068;2023-04-27T08:39:07;99864.56;;;9.91;59.20
69842;BME280;57138;51.326;-0.068;2023-04-27T08:41:33;99862.53;;;9.93;59.71
69842;BME280;57138;51.326;-0.068;2023-04-27T08:43:59;99855.97;;;9.96;60.38
69842;BME280;57138;51.326;-0.068;2023-04-27T08:46:25;99855.59;;;9.99;59.09
69842;BME280;57138;51.326;-0.068;2023-04-27T08:48:52;99852.72;;;10.00;59.60
69842;BME280;57138;51.326;-0.068;2023-04-27T08:51:20;99871.66;;;10.05;59.98
69842;BME280;57138;51.326;-0.068;2023-04-27T08:53:51;99871.66;;;10.05;58.95
69842;BME280;57138;51.326;-0.068;2023-04-27T08:56:21;99864.28;;;10.07;59.09
69842;BME280;57138;51.326;-0.068;2023-04-27T08:58:53;99870.03;;;10.11;59.76
69842;BME280;57138;51.326;-0.068;2023-04-27T09:01:22;99846.84;;;10.12;60.06
69842;BME280;57138;51.326;-0.068;2023-04-27T09:03:48;99851.22;;;10.19;59.12
69842;BME280;57138;51.326;-0.068;2023-04-27T09:06:30;99840.56;;;10.26;60.25
69842;BME280;57138;51.326;-0.068;2023-04-27T09:08:56;99839.84;;;10.39;59.81
69842;BME280;57138;51.326;-0.068;2023-04-27T09:11:37;99841.16;;;10.50;58.94
69842;BME280;57138;51.326;-0.068;2023-04-27T09:14:29;99827.88;;;10.70;58.26
69842;BME280;57138;51.326;-0.068;2023-04-27T09:17:00;99810.25;;;10.82;59.00
69842;BME280;57138;51.326;-0.068;2023-04-27T09:19:26;99818.94;;;10.91;58.31
69842;BME280;57138;51.326;-0.068;2023-04-27T09:22:09;99818.75;;;10.99;58.44
69842;BME280;57138;51.326;-0.068;2023-04-27T09:24:35;99807.44;;;10.97;59.08
69842;BME280;57138;51.326;-0.068;2023-04-27T09:27:02;99821.22;;;11.14;59.24
69842;BME280;57138;51.326;-0.068;2023-04-27T09:29:36;99810.38;;;11.29;57.72
69842;BME280;57138;51.326;-0.068;2023-04-27T09:32:16;99799.25;;;11.32;58.12
69842;BME280;57138;51.326;-0.068;2023-04-27T09:34:42;99804.63;;;11.45;58.77
69842;BME280;57138;51.326;-0.068;2023-04-27T09:37:08;99804.84;;;11.57;57.33
69842;BME280;57138;51.326;-0.068;2023-04-27T09:39:35;99801.97;;;11.59;57.31
69842;BME280;57138;51.326;-0.068;2023-04-27T09:42:01;99796.78;;;11.64;57.41
69842;BME280;57138;51.326;-0.068;2023-04-27T09:44:30;99787.34;;;11.68;57.55
69842;BME280;57138;51.326;-0.068;2023-04-27T09:47:21;99802.78;;;11.79;55.60
69842;BME280;57138;51.326;-0.068;2023-04-27T09:49:47;99797.63;;;11.71;54.23
69842;BME280;57138;51.326;-0.068;2023-04-27T09:52:15;99806.06;;;11.75;54.69
69842;BME280;57138;51.326;-0.068;2023-04-27T09:54:40;99801.56;;;11.75;55.57
69842;BME280;57138;51.326;-0.068;2023-04-27T09:57:35;99798.66;;;11.83;53.29
69842;BME280;57138;51.326;-0.068;2023-04-27T10:00:09;99802.81;;;11.93;54.86
69842;BME280;57138;51.326;-0.068;2023-04-27T10:03:01;99790.03;;;11.95;53.09
69842;BME280;57138;51.326;-0.068;2023-04-27T10:05:41;99790.03;;;11.95;52.60
69842;BME280;57138;51.326;-0.068;2023-04-27T10:08:09;99770.22;;;11.82;53.62
69842;BME280;57138;51.326;-0.068;2023-04-27T10:10:49;99786.50;;;12.01;52.26
69842;BME280;57138;51.326;-0.068;2023-04-27T10:13:23;99777.63;;;12.07;53.04
69842;BME280;57138;51.326;-0.068;2023-04-27T10:15:49;99779.66;;;12.18;52.82
69842;BME280;57138;51.326;-0.068;2023-04-27T10:18:25;99780.47;;;12.26;52.61
69842;BME280;57138;51.326;-0.068;2023-04-27T10:20:51;99775.94;;;12.33;52.44
69842;BME280;57138;51.326;-0.068;2023-04-27T10:23:24;99770.97;;;12.36;51.94
69842;BME280;57138;51.326;-0.068;2023-04-27T10:25:54;99769.66;;;12.52;51.82
69842;BME280;57138;51.326;-0.068;2023-04-27T10:28:24;99767.53;;;12.68;52.48
69842;BME280;57138;51.326;-0.068;2023-04-27T10:30:50;99768.69;;;12.92;51.91
69842;BME280;57138;51.326;-0.068;2023-04-27T10:33:18;99771.47;;;13.10;51.43
69842;BME280;57138;51.326;-0.068;2023-04-27T10:35:53;99780.00;;;13.26;51.36
69842;BME280;57138;51.326;-0.068;2023-04-27T10:38:20;99774.97;;;13.43;51.21
69842;BME280;57138;51.326;-0.068;2023-04-27T10:40:56;99761.22;;;13.58;49.54
69842;BME280;57138;51.326;-0.068;2023-04-27T10:43:27;99765.34;;;13.60;48.69
69842;BME280;57138;51.326;-0.068;2023-04-27T10:45:53;99765.44;;;13.72;49.70
69842;BME280;57138;51.326;-0.068;2023-04-27T10:48:19;99763.13;;;13.76;49.56
69842;BME280;57138;51.326;-0.068;2023-04-27T10:50:45;99757.94;;;13.81;49.92
69842;BME280;57138;51.326;-0.068;2023-04-27T10:53:12;99761.44;;;13.81;49.36
69842;BME280;57138;51.326;-0.068;2023-04-27T10:55:38;99754.34;;;13.87;49.44
69842;BME280;57138;51.326;-0.068;2023-04-27T10:58:03;99749.34;;;13.91;49.49
69842;BME280;57138;51.326;-0.068;2023-04-27T11:00:39;99751.06;;;13.85;47.29
69842;BME280;57138;51.326;-0.068;2023-04-27T11:03:13;99741.47;;;13.71;47.68
69842;BME280;57138;51.326;-0.068;2023-04-27T11:05:39;99747.28;;;13.68;48.70
69842;BME280;57138;51.326;-0.068;2023-04-27T11:10:31;99731.75;;;13.70;48.78
69842;BME280;57138;51.326;-0.068;2023-04-27T11:12:57;99728.47;;;13.68;49.32
69842;BME280;57138;51.326;-0.068;2023-04-27T11:15:23;99722.53;;;13.65;49.04
69842;BME280;57138;51.326;-0.068;2023-04-27T11:17:48;99725.66;;;13.62;48.47
69842;BME280;57138;51.326;-0.068;2023-04-27T11:20:22;99711.28;;;13.50;48.75
69842;BME280;57138;51.326;-0.068;2023-04-27T11:22:48;99716.22;;;13.53;49.65
69842;BME280;57138;51.326;-0.068;2023-04-27T11:25:13;99699.97;;;13.48;48.95
69842;BME280;57138;51.326;-0.068;2023-04-27T11:27:40;99718.31;;;13.51;48.85
69842;BME280;57138;51.326;-0.068;2023-04-27T11:30:17;99721.59;;;13.53;49.06
69842;BME280;57138;51.326;-0.068;2023-04-27T11:32:43;99727.34;;;13.57;48.71
69842;BME280;57138;51.326;-0.068;2023-04-27T11:35:09;99718.59;;;13.68;48.80
69842;BME280;57138;51.326;-0.068;2023-04-27T11:37:35;99717.63;;;13.81;49.42
69842;BME280;57138;51.326;-0.068;2023-04-27T11:40:01;99711.28;;;13.94;48.73
69842;BME280;57138;51.326;-0.068;2023-04-27T11:42:28;99687.69;;;13.96;48.09
69842;BME280;57138;51.326;-0.068;2023-04-27T11:44:58;99703.53;;;14.04;48.08
69842;BME280;57138;51.326;-0.068;2023-04-27T11:47:25;99700.75;;;13.92;47.60
69842;BME280;57138;51.326;-0.068;2023-04-27T11:49:54;99711.19;;;13.82;48.34
69842;BME280;57138;51.326;-0.068;2023-04-27T11:52:21;99703.28;;;13.69;48.56
69842;BME280;57138;51.326;-0.068;2023-04-27T11:54:52;99693.72;;;13.54;48.34
69842;BME280;57138;51.326;-0.068;2023-04-27T11:57:27;99696.50;;;13.41;48.28
69842;BME280;57138;51.326;-0.068;2023-04-27T11:59:53;99689.94;;;13.30;48.92
69842;BME280;57138;51.326;-0.068;2023-04-27T12:02:19;99682.53;;;13.25;49.31
69842;BME280;57138;51.326;-0.068;2023-04-27T12:04:51;99683.56;;;13.24;49.77
69842;BME280;57138;51.326;-0.068;2023-04-27T12:07:18;99683.75;;;13.29;50.43
69842;BME280;57138;51.326;-0.068;2023-04-27T12:09:44;99671.75;;;13.39;50.39
69842;BME280;57138;51.326;-0.068;2023-04-27T12:12:10;99686.53;;;13.48;49.69
69842;BME280;57138;51.326;-0.068;2023-04-27T12:14:37;99669.34;;;13.49;49.37
69842;BME280;57138;51.326;-0.068;2023-04-27T12:17:03;99665.97;;;13.60;49.69
69842;BME280;57138;51.326;-0.068;2023-04-27T12:19:29;99652.53;;;13.60;49.47
69842;BME280;57138;51.326;-0.068;2023-04-27T12:21:56;99660.28;;;13.69;49.47
69842;BME280;57138;51.326;-0.068;2023-04-27T12:24:22;99655.13;;;13.67;49.19
69842;BME280;57138;51.326;-0.068;2023-04-27T12:26:48;99651.53;;;13.55;48.45
69842;BME280;57138;51.326;-0.068;2023-04-27T12:29:13;99633.56;;;13.55;49.30
69842;BME280;57138;51.326;-0.068;2023-04-27T12:31:39;99632.22;;;13.64;49.62
69842;BME280;57138;51.326;-0.068;2023-04-27T12:34:05;99628.63;;;13.71;48.64
69842;BME280;57138;51.326;-0.068;2023-04-27T12:36:30;99623.72;;;13.86;49.78
69842;BME280;57138;51.326;-0.068;2023-04-27T12:39:10;99633.78;;;14.09;49.20
69842;BME280;57138;51.326;-0.068;2023-04-27T12:41:36;99631.91;;;14.10;49.08
69842;BME280;57138;51.326;-0.068;2023-04-27T12:44:01;99632.56;;;14.05;48.51
69842;BME280;57138;51.326;-0.068;2023-04-27T12:46:26;99635.22;;;13.93;48.92
69842;BME280;57138;51.326;-0.068;2023-04-27T12:48:52;99609.69;;;13.84;49.35
69842;BME280;57138;51.326;-0.068;2023-04-27T12:51:17;99607.22;;;13.82;50.40
69842;BME280;57138;51.326;-0.068;2023-04-27T12:53:42;99611.72;;;13.89;49.33
69842;BME280;57138;51.326;-0.068;2023-04-27T12:56:08;99596.47;;;13.82;49.43